Terminal Aerodrome Forecast
Issued by NWS

Home | Current Version | Previous Version | Text Only | Print | Product List | Glossary On
Versions: 1 2 3 4 5 6 7 8 9 10 11 12 13 14
759
FTAK31 PAJN 250527
TAFASI
TAF
PASI 250527Z 2506/2606 29005KT P6SM VCSH SCT007 OVC012
     FM251000 12005KT P6SM -RA BKN015 OVC030
     FM251500 32004KT P6SM -SHRA OVC015
     FM252000 24005KT P6SM -SHRA OVC015
     FM260300 30005KT P6SM VCSH FEW015 SCT030 OVC050=

USA.gov is the U.S. government's official web portal to all federal, state and local government web resources and services.